Bookmark and Share
Track history (hours):
 

Wilson Gaeta

Last reported at 2014-Apr-23 15:32 UTC. Time now 2014-Apr-23 15:43 UTC.
Position N 53°29' E 014°37'.

Length 88 m; draft 5.6 m.

Type: Cargo ship. MMSI: 314237000.

NotesDate/timePositionNaut miles runAvg speedWind from/ knotsBaromVisibWave heightAir tempDewpointWater temp
2014-Apr-23 15:32N 53°29' E 014°37'0 0.0
2014-Apr-23 14:29N 53°29' E 014°37'0 0.0
2014-Apr-23 13:32N 53°29' E 014°37'0 0.0
2014-Apr-23 12:32N 53°29' E 014°37'2 2.1
2014-Apr-23 11:33N 53°27' E 014°36'3 1.1
2014-Apr-23 09:04N 53°24' E 014°36'0 0.0
2014-Apr-23 00:31N 53°24' E 014°36'0 0.0
2014-Apr-22 21:28N 53°24' E 014°36'0 0.0
2014-Apr-22 20:31N 53°24' E 014°36'0 0.0
2014-Apr-22 19:28N 53°24' E 014°36'0 0.0
2014-Apr-22 12:23N 53°24' E 014°36'5 6.2
2014-Apr-22 11:33N 53°29' E 014°37'8 8.2
2014-Apr-22 10:33N 53°37' E 014°35'10 9.7
2014-Apr-22 09:34N 53°45' E 014°25'9 8.7
2014-Apr-22 08:33N 53°52' E 014°17'8 8.0
2014-Apr-22 07:33N 54°00' E 014°15'9 8.9
2014-Apr-22 06:33N 54°09' E 014°12'9 8.9
2014-Apr-22 05:33N 54°17' E 014°05'9 8.9
2014-Apr-22 04:33N 54°25' E 013°58'9 8.8
2014-Apr-22 03:33N 54°33' E 013°51'9 8.6
2014-Apr-22 02:34N 54°40' E 013°45'8 8.4
2014-Apr-22 01:34N 54°47' E 013°37'9 8.8
2014-Apr-22 00:33N 54°54' E 013°27'9 8.8
2014-Apr-21 23:33N 55°01' E 013°18'9 8.5
2014-Apr-21 22:32N 55°07' E 013°06'8 8.3
2014-Apr-21 21:34N 55°12' E 012°56'8 8.4
2014-Apr-21 20:34N 55°17' E 012°44'7 7.1
2014-Apr-21 19:34N 55°23' E 012°39'9 8.8
2014-Apr-21 18:33N 55°32' E 012°42'8 8.2
2014-Apr-21 17:33N 55°40' E 012°41'8 8.3
2014-Apr-21 16:34N 55°49' E 012°41'8 8.1
2014-Apr-21 15:33N 55°57' E 012°38'7 7.5
2014-Apr-21 14:34N 56°04' E 012°37'8 7.7
2014-Apr-21 13:33N 56°09' E 012°26'9 9.3
2014-Apr-21 12:33N 56°14' E 012°12'8 8.0
2014-Apr-21 11:33N 56°20' E 012°02'12 8.6
2014-Apr-21 10:13N 56°31' E 011°57'6 8.8
2014-Apr-21 09:33N 56°37' E 011°55'9 8.7
2014-Apr-21 08:33N 56°45' E 011°51'9 9.0
2014-Apr-21 07:34N 56°54' E 011°46'9 9.1
2014-Apr-21 06:33N 57°02' E 011°40'9 8.6
2014-Apr-21 05:33N 57°11' E 011°38'8 8.5
2014-Apr-21 04:34N 57°19' E 011°38'9 8.6
2014-Apr-21 03:33N 57°28' E 011°39'7 7.2
2014-Apr-21 02:32N 57°35' E 011°41'0 0.0
2014-Apr-21 01:32N 57°35' E 011°41'0 0.0
2014-Apr-21 00:32N 57°35' E 011°41'6 6.2
2014-Apr-20 23:33N 57°37' E 011°30'10 9.7
2014-Apr-20 22:33N 57°41' E 011°13'10 9.6
2014-Apr-20 21:33N 57°45' E 010°57'9 8.7
2014-Apr-20 20:33N 57°47' E 010°41'9 8.7
2014-Apr-20 19:33N 57°48' E 010°25'9 9.1
2014-Apr-20 18:33N 57°48' E 010°08'117 8.8
2014-Apr-20 05:18N 58°00' E 006°30'7 9.1
2014-Apr-20 04:33N 58°05' E 006°20'9 9.0
2014-Apr-20 03:33N 58°11' E 006°08'9 8.6
2014-Apr-20 02:33N 58°17' E 005°57'9 8.8
2014-Apr-20 01:33N 58°24' E 005°45'9 8.6
2014-Apr-20 00:33N 58°30' E 005°34'9 8.3
2014-Apr-19 23:27N 58°38' E 005°25'8 8.9
2014-Apr-19 22:33N 58°45' E 005°17'9 9.4
2014-Apr-19 21:34N 58°53' E 005°07'10 9.4
2014-Apr-19 20:33N 59°01' E 004°58'9 9.5
2014-Apr-19 19:33N 59°09' E 004°49'  
2014-Apr-14 11:33N 59°18' E 005°20'8 8.4
2014-Apr-14 10:33N 59°10' E 005°21'8 8.2
2014-Apr-14 09:34N 59°02' E 005°20'7 6.7
2014-Apr-14 08:34N 58°55' E 005°18'6 6.2
2014-Apr-14 07:33N 58°49' E 005°16'6 6.1
2014-Apr-14 06:33N 58°43' E 005°14'  

Dump ship's entire track history

sailing weather and tide predictions

Wilson Gaeta — 8PTS — position and weather